Time;durP1;ratioP1;P1;durP2;ratioP2;P2;SDS_P1;SDS_P2;PMS_P1;PMS_P2;Temp;Humidity;BMP_temperature;BMP_pressure;BME280_temperature;BME280_humidity;BME280_pressure;Samples;Min_cycle;Max_cycle;Signal;HPM_P1;HPM_P2
2022/10/18 00:00:39;;;;;;;11.95;5.72;;;;;;;;;;5074219;28;20073;-72
2022/10/18 00:03:05;;;;;;;7.93;6.35;;;;;;;;;;5072979;28;20031;-72
2022/10/18 00:05:30;;;;;;;10.18;6.45;;;;;;;;;;5074054;28;20021;-72
2022/10/18 00:07:55;;;;;;;8.02;5.90;;;;;;;;;;5073660;28;20020;-72
2022/10/18 00:10:23;;;;;;;8.17;5.83;;;;;;;;;;5073737;28;20020;-72
2022/10/18 00:12:48;;;;;;;9.98;6.57;;;;;;;;;;5073988;28;20270;-72
2022/10/18 00:15:13;;;;;;;9.50;6.77;;;;;;;;;;5071538;28;20043;-72
2022/10/18 00:17:38;;;;;;;8.57;6.57;;;;;;;;;;5073276;28;20270;-72
2022/10/18 00:20:04;;;;;;;8.55;6.50;;;;;;;;;;5073004;28;20282;-72
2022/10/18 00:22:30;;;;;;;9.85;7.50;;;;;;;;;;5073440;28;20016;-72
2022/10/18 00:24:55;;;;;;;8.93;6.03;;;;;;;;;;5070162;28;20016;-73
2022/10/18 00:27:20;;;;;;;9.35;5.32;;;;;;;;;;5073064;28;20267;-73
2022/10/18 00:29:45;;;;;;;9.80;5.20;;;;;;;;;;5074339;28;20395;-73
2022/10/18 00:32:11;;;;;;;6.37;5.43;;;;;;;;;;5073384;28;20620;-73
2022/10/18 00:34:37;;;;;;;8.37;5.63;;;;;;;;;;5054867;28;20362;-73
2022/10/18 00:37:02;;;;;;;8.93;5.45;;;;;;;;;;5073284;28;20291;-74
2022/10/18 00:39:27;;;;;;;9.60;5.43;;;;;;;;;;5055065;28;20108;-74
2022/10/18 00:41:52;;;;;;;6.93;5.77;;;;;;;;;;5072955;28;20765;-74
2022/10/18 00:44:17;;;;;;;13.35;7.45;;;;;;;;;;5054939;28;20656;-74
2022/10/18 00:46:44;;;;;;;13.57;6.43;;;;;;;;;;5073057;28;20051;-74
2022/10/18 00:49:11;;;;;;;9.80;7.28;;;;;;;;;;5073372;28;20749;-73
2022/10/18 00:51:45;;;;;;;12.07;6.35;;;;;;;;;;5070566;28;20020;-74
2022/10/18 00:54:11;;;;;;;10.63;7.38;;;;;;;;;;5072709;28;20032;-74
2022/10/18 00:56:36;;;;;;;15.60;5.90;;;;;;;;;;5054686;28;20020;-73
2022/10/18 00:59:02;;;;;;;9.10;6.97;;;;;;;;;;5073205;28;20118;-73
2022/10/18 01:01:27;;;;;;;11.32;7.40;;;;;;;;;;5067184;28;20282;-73
2022/10/18 01:03:53;;;;;;;9.60;6.40;;;;;;;;;;5071850;28;20475;-73
2022/10/18 01:06:18;;;;;;;15.63;7.15;;;;;;;;;;5070581;28;20266;-72
2022/10/18 01:08:56;;;;;;;16.85;7.35;;;;;;;;;;5070208;28;20093;-73
2022/10/18 01:11:47;;;;;;;8.60;6.50;;;;;;;;;;5072762;28;20021;-73
2022/10/18 01:14:24;;;;;;;24.95;7.32;;;;;;;;;;5062168;28;20024;-73
2022/10/18 01:17:12;;;;;;;12.38;6.65;;;;;;;;;;5072443;28;20024;-73
2022/10/18 01:19:45;;;;;;;9.00;7.10;;;;;;;;;;5063794;28;20020;-75
2022/10/18 01:22:16;;;;;;;7.88;6.70;;;;;;;;;;5072646;28;20490;-74
2022/10/18 01:24:53;;;;;;;10.70;7.55;;;;;;;;;;5049668;28;20382;-74
2022/10/18 01:27:34;;;;;;;15.82;8.30;;;;;;;;;;5072512;28;20028;-74
2022/10/18 01:29:59;;;;;;;10.60;8.15;;;;;;;;;;5072498;28;20019;-74
2022/10/18 01:32:31;;;;;;;13.43;7.53;;;;;;;;;;5072440;28;20012;-74
2022/10/18 01:34:58;;;;;;;13.05;8.57;;;;;;;;;;5061276;28;20012;-74
2022/10/18 01:37:24;;;;;;;13.00;8.27;;;;;;;;;;5077739;28;20398;-74
2022/10/18 01:39:52;;;;;;;15.20;10.00;;;;;;;;;;5072626;28;20020;-74
2022/10/18 01:42:18;;;;;;;14.93;10.80;;;;;;;;;;5071659;28;20021;-74
2022/10/18 01:44:44;;;;;;;10.93;8.63;;;;;;;;;;5072031;28;20090;-74
2022/10/18 01:47:11;;;;;;;14.00;10.60;;;;;;;;;;5056543;28;20059;-74
2022/10/18 01:49:36;;;;;;;11.80;9.55;;;;;;;;;;5058629;28;20009;-74
2022/10/18 01:52:02;;;;;;;15.50;10.93;;;;;;;;;;5058330;28;20023;-74
2022/10/18 01:54:30;;;;;;;13.27;11.30;;;;;;;;;;5057502;28;20349;-75
2022/10/18 01:57:07;;;;;;;20.67;12.88;;;;;;;;;;5074290;28;20021;-74
2022/10/18 01:59:56;;;;;;;15.05;11.48;;;;;;;;;;5073129;28;20023;-74
2022/10/18 02:02:24;;;;;;;23.92;11.65;;;;;;;;;;5070533;28;20174;-75
2022/10/18 02:05:02;;;;;;;20.35;13.05;;;;;;;;;;5076134;28;20028;-75
2022/10/18 02:07:36;;;;;;;22.50;14.23;;;;;;;;;;5076198;28;20020;-75
2022/10/18 02:10:09;;;;;;;18.60;14.88;;;;;;;;;;5075167;28;20146;-75
2022/10/18 02:12:35;;;;;;;40.60;18.13;;;;;;;;;;5071363;28;20024;-75
2022/10/18 02:15:01;;;;;;;24.90;15.98;;;;;;;;;;5055935;28;20108;-75
2022/10/18 02:17:28;;;;;;;23.50;14.52;;;;;;;;;;5075737;28;20095;-75
2022/10/18 02:19:54;;;;;;;28.85;15.10;;;;;;;;;;5075141;28;20019;-74
2022/10/18 02:22:21;;;;;;;17.35;15.07;;;;;;;;;;5075184;28;20013;-74
2022/10/18 02:24:48;;;;;;;23.55;15.65;;;;;;;;;;5061146;28;20119;-74
2022/10/18 02:27:13;;;;;;;21.95;16.17;;;;;;;;;;5075366;28;20032;-75
2022/10/18 02:29:39;;;;;;;18.25;15.48;;;;;;;;;;5075274;28;20016;-75
2022/10/18 02:32:17;;;;;;;17.23;15.45;;;;;;;;;;5059602;28;20075;-75
2022/10/18 02:34:45;;;;;;;25.48;14.65;;;;;;;;;;5073435;28;20035;-74
2022/10/18 02:37:10;;;;;;;18.42;14.10;;;;;;;;;;5056373;28;20131;-74
2022/10/18 02:39:41;;;;;;;25.85;18.95;;;;;;;;;;5074409;28;20095;-75
2022/10/18 02:42:08;;;;;;;20.05;17.92;;;;;;;;;;5074262;28;20021;-75
2022/10/18 02:44:34;;;;;;;19.73;16.05;;;;;;;;;;5056385;28;20104;-75
2022/10/18 02:46:59;;;;;;;18.20;16.00;;;;;;;;;;5073889;28;20091;-75
2022/10/18 02:49:24;;;;;;;30.77;17.65;;;;;;;;;;5074825;28;20458;-75
2022/10/18 02:51:49;;;;;;;40.17;18.70;;;;;;;;;;5075050;28;20009;-75
2022/10/18 02:54:15;;;;;;;24.83;18.23;;;;;;;;;;5056921;28;20286;-76
2022/10/18 02:56:40;;;;;;;23.30;18.07;;;;;;;;;;5057263;28;20324;-76
2022/10/18 02:59:06;;;;;;;19.70;15.67;;;;;;;;;;5074558;28;20289;-75
2022/10/18 03:01:32;;;;;;;21.38;17.35;;;;;;;;;;5075473;28;20278;-75
2022/10/18 03:03:57;;;;;;;21.80;16.02;;;;;;;;;;5074824;28;20027;-75
2022/10/18 03:06:22;;;;;;;25.83;16.10;;;;;;;;;;5075046;28;20021;-76
2022/10/18 03:08:48;;;;;;;23.93;18.40;;;;;;;;;;5058893;28;20021;-76
2022/10/18 03:11:13;;;;;;;21.38;15.55;;;;;;;;;;5057105;28;20271;-75
2022/10/18 03:13:38;;;;;;;22.07;17.60;;;;;;;;;;5070023;28;20074;-76
2022/10/18 03:16:03;;;;;;;19.98;15.38;;;;;;;;;;5053524;28;20280;-76
2022/10/18 03:18:29;;;;;;;22.55;19.38;;;;;;;;;;5077834;28;20025;-76
2022/10/18 03:20:54;;;;;;;24.20;20.08;;;;;;;;;;5074549;28;20021;-76
2022/10/18 03:23:19;;;;;;;21.25;18.83;;;;;;;;;;5059533;28;20013;-75
2022/10/18 03:25:44;;;;;;;19.23;16.20;;;;;;;;;;5056803;28;20095;-76
2022/10/18 03:28:10;;;;;;;21.17;18.97;;;;;;;;;;5074402;28;20412;-75
2022/10/18 03:30:35;;;;;;;29.10;22.17;;;;;;;;;;5055261;28;20312;-75
2022/10/18 03:33:00;;;;;;;25.23;20.38;;;;;;;;;;5072911;28;20282;-76
2022/10/18 03:35:25;;;;;;;31.27;21.73;;;;;;;;;;5074434;28;20374;-76
2022/10/18 03:37:51;;;;;;;28.00;22.87;;;;;;;;;;5056846;28;20036;-75
2022/10/18 03:40:16;;;;;;;34.07;23.20;;;;;;;;;;5055451;28;20286;-76
2022/10/18 03:42:41;;;;;;;28.75;24.17;;;;;;;;;;5074742;28;20274;-76
2022/10/18 03:45:07;;;;;;;34.40;25.67;;;;;;;;;;5074452;28;20013;-76
2022/10/18 03:47:32;;;;;;;27.63;23.55;;;;;;;;;;5073293;28;20421;-76
2022/10/18 03:49:57;;;;;;;31.88;25.73;;;;;;;;;;5062622;28;20140;-76
2022/10/18 03:52:22;;;;;;;28.13;21.80;;;;;;;;;;5070490;28;20660;-76
2022/10/18 03:54:48;;;;;;;32.30;23.55;;;;;;;;;;5055994;28;20316;-76
2022/10/18 03:57:13;;;;;;;44.23;25.43;;;;;;;;;;5074184;28;20025;-76
2022/10/18 03:59:38;;;;;;;31.17;24.20;;;;;;;;;;5051653;28;20267;-77
2022/10/18 04:02:03;;;;;;;33.97;23.57;;;;;;;;;;5031500;28;20028;-76
2022/10/18 04:04:29;;;;;;;43.30;26.73;;;;;;;;;;5046747;28;20263;-76
2022/10/18 04:06:54;;;;;;;28.90;23.88;;;;;;;;;;5027703;28;21195;-76
2022/10/18 04:09:19;;;;;;;33.10;23.42;;;;;;;;;;5041904;28;20048;-76
2022/10/18 04:11:44;;;;;;;35.72;22.33;;;;;;;;;;5037155;28;20592;-76
2022/10/18 04:14:09;;;;;;;33.17;23.95;;;;;;;;;;5042458;28;20034;-77
2022/10/18 04:16:35;;;;;;;26.75;22.63;;;;;;;;;;5032772;28;20110;-76
2022/10/18 04:19:00;;;;;;;28.63;20.27;;;;;;;;;;5015616;28;20939;-76
2022/10/18 04:21:25;;;;;;;29.08;21.20;;;;;;;;;;5031316;28;20017;-76
2022/10/18 04:23:51;;;;;;;29.93;21.20;;;;;;;;;;5021249;28;20017;-75
2022/10/18 04:26:16;;;;;;;25.90;20.50;;;;;;;;;;5020965;28;20274;-75
2022/10/18 04:28:41;;;;;;;29.75;20.92;;;;;;;;;;5018518;28;20017;-75
2022/10/18 04:31:07;;;;;;;24.73;20.35;;;;;;;;;;5021229;28;20128;-76
2022/10/18 04:33:32;;;;;;;21.80;19.13;;;;;;;;;;5041714;28;20016;-75
2022/10/18 04:35:57;;;;;;;26.02;18.50;;;;;;;;;;5020843;28;20034;-75
2022/10/18 04:38:22;;;;;;;30.57;20.53;;;;;;;;;;5024985;28;20024;-76
2022/10/18 04:40:48;;;;;;;23.10;18.23;;;;;;;;;;5038826;28;20270;-75
2022/10/18 04:43:13;;;;;;;22.60;18.23;;;;;;;;;;5042995;28;20460;-75
2022/10/18 04:45:38;;;;;;;20.70;18.48;;;;;;;;;;5023989;28;21396;-75
2022/10/18 04:48:04;;;;;;;26.00;19.58;;;;;;;;;;5012402;28;20083;-76
2022/10/18 04:50:29;;;;;;;22.67;17.45;;;;;;;;;;5019324;28;20020;-75
2022/10/18 04:52:54;;;;;;;26.92;19.23;;;;;;;;;;5039025;28;20375;-76
2022/10/18 04:55:19;;;;;;;22.75;17.42;;;;;;;;;;5023724;28;20784;-75
2022/10/18 04:57:45;;;;;;;19.00;15.80;;;;;;;;;;5074149;28;20023;-74
2022/10/18 05:00:10;;;;;;;23.90;18.27;;;;;;;;;;5084288;28;20266;-74
2022/10/18 05:02:35;;;;;;;26.08;19.27;;;;;;;;;;5072758;28;20294;-74
2022/10/18 05:05:01;;;;;;;24.95;18.83;;;;;;;;;;5067622;28;20021;-75
2022/10/18 05:07:26;;;;;;;23.85;19.33;;;;;;;;;;5064381;28;20431;-75
2022/10/18 05:09:51;;;;;;;20.80;18.40;;;;;;;;;;5054015;28;20025;-74
2022/10/18 05:12:16;;;;;;;24.80;20.70;;;;;;;;;;5073042;28;20021;-74
2022/10/18 05:14:42;;;;;;;25.17;19.50;;;;;;;;;;5054326;28;20024;-75
2022/10/18 05:17:07;;;;;;;24.00;19.43;;;;;;;;;;5054764;28;20035;-75
2022/10/18 05:19:32;;;;;;;23.63;18.50;;;;;;;;;;5054993;28;20294;-75
2022/10/18 05:21:57;;;;;;;22.52;18.55;;;;;;;;;;5072186;28;20475;-75
2022/10/18 05:24:23;;;;;;;23.37;18.53;;;;;;;;;;5072143;28;20024;-75
2022/10/18 05:26:48;;;;;;;23.43;19.77;;;;;;;;;;5072466;28;20274;-74
2022/10/18 05:29:13;;;;;;;30.80;20.63;;;;;;;;;;5052368;28;20323;-74
2022/10/18 05:31:39;;;;;;;26.92;19.13;;;;;;;;;;5072240;28;20267;-74
2022/10/18 05:34:04;;;;;;;23.87;18.10;;;;;;;;;;5087387;28;20018;-75
2022/10/18 05:36:29;;;;;;;22.07;15.80;;;;;;;;;;5072439;28;20288;-75
2022/10/18 05:38:55;;;;;;;23.33;17.80;;;;;;;;;;5072300;28;20267;-75
2022/10/18 05:41:20;;;;;;;24.42;18.85;;;;;;;;;;5072917;28;20287;-74
2022/10/18 05:43:46;;;;;;;21.45;16.73;;;;;;;;;;5074362;28;20127;-74
2022/10/18 05:46:11;;;;;;;21.67;18.23;;;;;;;;;;5072313;28;20451;-75
2022/10/18 05:48:37;;;;;;;26.10;18.48;;;;;;;;;;5056291;28;21296;-74
2022/10/18 05:51:02;;;;;;;24.67;18.15;;;;;;;;;;5041457;28;20068;-73
2022/10/18 05:53:27;;;;;;;27.40;19.80;;;;;;;;;;5027930;28;20862;-73
2022/10/18 05:55:53;;;;;;;29.63;23.65;;;;;;;;;;5027821;28;20056;-74
2022/10/18 05:58:18;;;;;;;37.57;30.07;;;;;;;;;;5029152;28;20032;-76
2022/10/18 06:00:43;;;;;;;39.20;34.85;;;;;;;;;;5012941;28;20267;-73
2022/10/18 06:03:08;;;;;;;45.15;32.92;;;;;;;;;;5028139;28;20075;-72
2022/10/18 06:05:34;;;;;;;43.83;30.33;;;;;;;;;;5028531;28;20036;-74
2022/10/18 06:07:59;;;;;;;35.55;26.52;;;;;;;;;;5013512;28;20024;-74
2022/10/18 06:10:24;;;;;;;32.05;24.45;;;;;;;;;;5036433;28;20037;-74
2022/10/18 06:12:50;;;;;;;29.73;26.00;;;;;;;;;;5028577;28;20029;-74
2022/10/18 06:15:15;;;;;;;35.67;27.88;;;;;;;;;;5008465;28;20027;-75
2022/10/18 06:17:40;;;;;;;33.05;28.80;;;;;;;;;;5010413;28;20032;-75
2022/10/18 06:20:06;;;;;;;31.17;27.03;;;;;;;;;;5011291;28;20091;-75
2022/10/18 06:22:31;;;;;;;30.92;24.52;;;;;;;;;;5032016;28;20270;-75
2022/10/18 06:24:56;;;;;;;50.70;32.33;;;;;;;;;;5028185;28;20016;-74
2022/10/18 06:27:22;;;;;;;32.13;27.80;;;;;;;;;;5032887;28;20024;-74
2022/10/18 06:29:47;;;;;;;32.93;26.53;;;;;;;;;;5011485;28;20270;-73
2022/10/18 06:32:12;;;;;;;38.30;26.70;;;;;;;;;;5029228;28;20255;-73
2022/10/18 06:34:37;;;;;;;35.60;28.88;;;;;;;;;;5034694;28;21030;-73
2022/10/18 06:37:03;;;;;;;44.65;28.75;;;;;;;;;;5030555;28;20033;-73
2022/10/18 06:39:28;;;;;;;33.25;28.15;;;;;;;;;;5015652;28;20024;-75
2022/10/18 06:41:53;;;;;;;41.20;31.67;;;;;;;;;;5031446;28;20012;-73
2022/10/18 06:44:19;;;;;;;41.87;34.60;;;;;;;;;;5013874;28;20033;-73
2022/10/18 06:46:44;;;;;;;47.70;34.10;;;;;;;;;;5031822;28;20271;-74
2022/10/18 06:49:10;;;;;;;45.90;32.15;;;;;;;;;;5029282;28;20896;-73
2022/10/18 06:51:36;;;;;;;52.13;30.65;;;;;;;;;;5032186;28;20069;-73
2022/10/18 06:54:01;;;;;;;39.83;29.00;;;;;;;;;;5017278;28;20209;-75
2022/10/18 06:56:27;;;;;;;33.63;30.00;;;;;;;;;;5031477;28;20127;-74
2022/10/18 06:58:52;;;;;;;35.75;29.73;;;;;;;;;;5017585;28;20019;-74
2022/10/18 07:01:17;;;;;;;42.08;32.30;;;;;;;;;;5015790;28;20021;-74
2022/10/18 07:03:43;;;;;;;43.67;33.92;;;;;;;;;;5016834;28;20273;-74
2022/10/18 07:06:09;;;;;;;59.10;38.40;;;;;;;;;;5032074;28;20772;-74
2022/10/18 07:08:35;;;;;;;55.35;40.75;;;;;;;;;;5011641;28;20105;-74
2022/10/18 07:11:00;;;;;;;58.58;38.90;;;;;;;;;;5015713;28;20055;-74
2022/10/18 07:13:32;;;;;;;50.97;39.63;;;;;;;;;;5016802;28;20884;-74
2022/10/18 07:16:01;;;;;;;65.38;44.38;;;;;;;;;;5032280;28;21232;-72
2022/10/18 07:18:26;;;;;;;68.93;48.72;;;;;;;;;;5039232;28;20275;-74
2022/10/18 07:20:51;;;;;;;59.05;47.63;;;;;;;;;;5035158;28;20522;-75
2022/10/18 07:23:17;;;;;;;66.25;47.15;;;;;;;;;;5015269;28;20799;-75
2022/10/18 07:25:42;;;;;;;58.10;46.25;;;;;;;;;;5031947;28;20055;-75
2022/10/18 07:28:08;;;;;;;71.15;47.30;;;;;;;;;;5014034;28;20865;-74
2022/10/18 07:30:33;;;;;;;75.93;50.83;;;;;;;;;;5014010;28;20020;-75
2022/10/18 07:32:58;;;;;;;73.90;50.77;;;;;;;;;;5031757;28;20858;-75
2022/10/18 07:35:23;;;;;;;71.35;51.63;;;;;;;;;;5023150;28;21221;-75
2022/10/18 07:37:48;;;;;;;71.50;53.47;;;;;;;;;;5029036;28;20090;-75
2022/10/18 07:40:14;;;;;;;80.87;55.27;;;;;;;;;;5013543;28;20026;-75
2022/10/18 07:42:39;;;;;;;77.78;56.05;;;;;;;;;;5032869;28;20270;-75
2022/10/18 07:45:05;;;;;;;75.68;58.95;;;;;;;;;;5030340;28;20013;-76
2022/10/18 07:47:30;;;;;;;72.88;55.78;;;;;;;;;;5012178;28;20016;-76
2022/10/18 07:49:55;;;;;;;73.20;55.03;;;;;;;;;;5030213;28;20047;-75
2022/10/18 07:52:20;;;;;;;83.78;61.15;;;;;;;;;;5032521;28;20934;-75
2022/10/18 07:54:45;;;;;;;79.43;63.43;;;;;;;;;;5022029;28;20032;-74
2022/10/18 07:57:11;;;;;;;89.00;64.83;;;;;;;;;;5009604;28;20280;-75
2022/10/18 07:59:37;;;;;;;102.17;68.30;;;;;;;;;;5021124;28;20284;-75
2022/10/18 08:02:02;;;;;;;77.18;62.22;;;;;;;;;;5044318;28;20353;-76
2022/10/18 08:04:28;;;;;;;91.10;63.87;;;;;;;;;;5029917;28;20078;-75
2022/10/18 08:06:53;;;;;;;83.77;62.13;;;;;;;;;;5037228;28;20380;-75
2022/10/18 08:09:18;;;;;;;79.77;62.20;;;;;;;;;;5033453;28;21348;-75
2022/10/18 08:11:43;;;;;;;97.80;65.25;;;;;;;;;;5010010;28;20473;-75
2022/10/18 08:14:08;;;;;;;84.40;70.83;;;;;;;;;;5029207;28;20186;-75
2022/10/18 08:16:34;;;;;;;91.67;68.57;;;;;;;;;;5011774;28;20282;-75
2022/10/18 08:18:59;;;;;;;87.30;65.97;;;;;;;;;;5031184;28;20267;-75
2022/10/18 08:21:24;;;;;;;84.53;66.75;;;;;;;;;;5011529;28;20333;-75
2022/10/18 08:23:50;;;;;;;86.43;65.03;;;;;;;;;;5029357;28;20842;-75
2022/10/18 08:26:17;;;;;;;78.32;64.22;;;;;;;;;;5029532;28;20957;-75
2022/10/18 08:28:42;;;;;;;95.97;64.57;;;;;;;;;;5012735;28;20490;-75
2022/10/18 08:31:12;;;;;;;94.20;74.13;;;;;;;;;;5028906;28;20221;-75
2022/10/18 08:33:38;;;;;;;92.63;67.63;;;;;;;;;;5011342;28;20016;-75
2022/10/18 08:36:07;;;;;;;95.80;69.32;;;;;;;;;;5029268;28;20040;-75
2022/10/18 08:38:36;;;;;;;98.22;73.28;;;;;;;;;;5014799;28;20021;-74
2022/10/18 08:41:14;;;;;;;90.50;70.22;;;;;;;;;;5032793;28;20895;-74
2022/10/18 08:43:42;;;;;;;101.35;64.68;;;;;;;;;;5029747;28;20047;-75
2022/10/18 08:46:10;;;;;;;84.32;61.03;;;;;;;;;;5012222;28;20029;-75
2022/10/18 08:48:41;;;;;;;82.28;63.25;;;;;;;;;;5019216;28;20021;-75
2022/10/18 08:51:13;;;;;;;82.45;61.70;;;;;;;;;;5011257;28;20021;-75
2022/10/18 08:53:54;;;;;;;85.20;58.58;;;;;;;;;;5028749;28;20139;-74
2022/10/18 08:56:22;;;;;;;89.38;63.67;;;;;;;;;;5017934;28;20139;-74
2022/10/18 08:58:48;;;;;;;79.22;61.85;;;;;;;;;;5027734;28;20013;-74
2022/10/18 09:01:14;;;;;;;87.28;62.67;;;;;;;;;;5025522;28;20024;-75
2022/10/18 09:04:12;;;;;;;87.93;57.38;;;;;;;;;;5030007;28;20016;-74
2022/10/18 09:06:43;;;;;;;69.50;55.20;;;;;;;;;;5007464;28;20119;-75
2022/10/18 09:09:24;;;;;;;69.05;58.97;;;;;;;;;;5029709;28;20059;-75
2022/10/18 09:11:53;;;;;;;63.15;55.10;;;;;;;;;;5010218;28;20898;-75
2022/10/18 09:14:24;;;;;;;70.78;54.55;;;;;;;;;;5028547;28;20143;-75
2022/10/18 09:16:59;;;;;;;74.20;56.78;;;;;;;;;;5027748;28;20017;-76
2022/10/18 09:19:44;;;;;;;65.25;49.35;;;;;;;;;;4999579;28;20182;-75
2022/10/18 09:22:12;;;;;;;61.75;48.88;;;;;;;;;;5028540;28;20128;-75
2022/10/18 09:24:48;;;;;;;66.53;47.58;;;;;;;;;;5029436;28;20028;-76
2022/10/18 09:27:18;;;;;;;59.80;46.90;;;;;;;;;;5026913;28;20964;-76
2022/10/18 09:29:51;;;;;;;67.50;46.30;;;;;;;;;;5010923;28;20016;-75
2022/10/18 09:32:23;;;;;;;64.28;45.95;;;;;;;;;;5009199;28;20389;-75
2022/10/18 09:34:49;;;;;;;55.90;49.58;;;;;;;;;;5010027;28;20135;-75
2022/10/18 09:37:15;;;;;;;45.50;38.35;;;;;;;;;;5011744;28;20037;-78
2022/10/18 09:39:41;;;;;;;49.08;40.95;;;;;;;;;;5031124;28;20024;-76
2022/10/18 09:42:09;;;;;;;55.70;43.58;;;;;;;;;;5016004;28;20048;-74
2022/10/18 09:44:39;;;;;;;51.80;40.13;;;;;;;;;;5030918;28;20907;-76
2022/10/18 09:47:17;;;;;;;54.35;40.58;;;;;;;;;;5030715;28;20040;-75
2022/10/18 09:49:44;;;;;;;50.70;42.08;;;;;;;;;;5009730;28;20844;-72
2022/10/18 09:52:16;;;;;;;54.05;41.35;;;;;;;;;;5031313;28;20025;-73
2022/10/18 09:55:02;;;;;;;52.78;38.83;;;;;;;;;;5028152;28;20009;-72
2022/10/18 09:57:40;;;;;;;56.50;43.92;;;;;;;;;;5027086;28;20093;-75
2022/10/18 10:00:12;;;;;;;60.22;45.80;;;;;;;;;;5011604;28;20016;-75
2022/10/18 10:02:37;;;;;;;56.90;42.53;;;;;;;;;;5071955;28;20016;-75
2022/10/18 10:05:03;;;;;;;59.10;45.70;;;;;;;;;;5059799;28;20036;-75
2022/10/18 10:07:33;;;;;;;67.93;46.83;;;;;;;;;;5071373;28;20270;-75
2022/10/18 10:10:17;;;;;;;61.60;46.97;;;;;;;;;;5074833;28;20529;-75
2022/10/18 10:12:43;;;;;;;54.80;43.77;;;;;;;;;;5076273;28;20424;-75
2022/10/18 10:15:11;;;;;;;57.28;44.05;;;;;;;;;;5057005;28;20349;-75
2022/10/18 10:17:36;;;;;;;62.55;44.22;;;;;;;;;;5057260;28;20031;-75
2022/10/18 10:20:19;;;;;;;51.08;43.22;;;;;;;;;;5075314;28;20103;-75
2022/10/18 10:22:46;;;;;;;51.92;34.83;;;;;;;;;;5076225;28;20375;-75
2022/10/18 10:25:34;;;;;;;48.25;37.15;;;;;;;;;;5074555;28;20012;-75
2022/10/18 10:28:03;;;;;;;46.22;32.60;;;;;;;;;;5071410;28;20036;-75
2022/10/18 10:30:30;;;;;;;48.88;34.78;;;;;;;;;;5056986;28;20051;-75
2022/10/18 10:32:56;;;;;;;46.55;33.42;;;;;;;;;;5075819;28;20017;-76
2022/10/18 10:35:28;;;;;;;42.80;33.05;;;;;;;;;;5075105;28;20027;-75
2022/10/18 10:37:53;;;;;;;33.70;25.90;;;;;;;;;;5056670;28;20394;-77
2022/10/18 10:40:20;;;;;;;42.38;24.92;;;;;;;;;;5073475;28;20103;-75
2022/10/18 10:42:58;;;;;;;34.13;23.80;;;;;;;;;;5054035;28;20020;-76
2022/10/18 10:45:24;;;;;;;42.22;26.77;;;;;;;;;;5075000;28;20043;-77
2022/10/18 10:47:51;;;;;;;35.75;23.80;;;;;;;;;;5057259;28;20641;-76
2022/10/18 10:50:22;;;;;;;37.65;25.40;;;;;;;;;;5036875;28;20135;-76
2022/10/18 10:52:47;;;;;;;35.17;26.52;;;;;;;;;;5073960;28;20044;-76
2022/10/18 10:55:17;;;;;;;42.92;28.73;;;;;;;;;;5057931;28;20059;-77
2022/10/18 10:57:43;;;;;;;52.13;33.13;;;;;;;;;;5075372;28;20482;-75
2022/10/18 11:00:28;;;;;;;37.13;29.80;;;;;;;;;;5056243;28;20028;-76
2022/10/18 11:03:04;;;;;;;42.38;27.70;;;;;;;;;;5055831;28;20013;-76
2022/10/18 11:05:29;;;;;;;39.70;27.73;;;;;;;;;;5043045;28;20025;-76
2022/10/18 11:07:57;;;;;;;44.13;29.20;;;;;;;;;;5072930;28;20066;-76
2022/10/18 11:10:23;;;;;;;35.17;27.75;;;;;;;;;;5074102;28;20293;-76
2022/10/18 11:12:53;;;;;;;37.97;27.83;;;;;;;;;;5071694;28;20081;-75
2022/10/18 11:15:25;;;;;;;40.20;27.33;;;;;;;;;;5074848;28;20067;-76
2022/10/18 11:18:16;;;;;;;34.80;24.52;;;;;;;;;;5073370;28;20032;-76
2022/10/18 11:20:50;;;;;;;37.40;25.80;;;;;;;;;;5050728;28;20024;-76
2022/10/18 11:23:15;;;;;;;;;;;;;;;;;;5069667;28;20008;-76
2022/10/18 11:25:46;;;;;;;36.28;24.00;;;;;;;;;;5087123;28;20002;-76
2022/10/18 11:28:21;;;;;;;40.47;19.90;;;;;;;;;;5073853;28;20028;-75
2022/10/18 11:30:46;;;;;;;23.92;17.90;;;;;;;;;;5074305;28;20017;-77
2022/10/18 11:33:18;;;;;;;29.17;17.13;;;;;;;;;;5054562;28;20027;-76
2022/10/18 11:36:00;;;;;;;24.13;15.27;;;;;;;;;;5035569;28;20348;-77
2022/10/18 11:38:31;;;;;;;18.27;13.50;;;;;;;;;;5067728;28;20078;-75
2022/10/18 11:41:13;;;;;;;16.13;11.95;;;;;;;;;;5065556;28;20074;-77
2022/10/18 11:43:44;;;;;;;18.55;12.75;;;;;;;;;;5056978;28;20034;-78
2022/10/18 11:46:10;;;;;;;21.00;11.52;;;;;;;;;;5053825;28;20016;-77
2022/10/18 11:48:45;;;;;;;18.80;11.35;;;;;;;;;;5071195;28;20098;-75
2022/10/18 11:51:19;;;;;;;28.20;10.60;;;;;;;;;;5067344;28;21830;-75
2022/10/18 11:53:45;;;;;;;;;;;;;;;;;;5074938;28;20139;-77
2022/10/18 11:56:13;;;;;;;19.63;8.77;;;;;;;;;;5074010;28;19991;-76
2022/10/18 11:58:47;;;;;;;15.95;10.23;;;;;;;;;;5055155;28;20029;-75
2022/10/18 12:01:27;;;;;;;16.40;9.60;;;;;;;;;;5054425;28;20099;-77
2022/10/18 12:04:06;;;;;;;15.05;9.38;;;;;;;;;;5072740;28;20021;-74
2022/10/18 12:06:36;;;;;;;16.20;9.90;;;;;;;;;;5072385;28;20394;-74
2022/10/18 12:09:20;;;;;;;14.27;8.00;;;;;;;;;;5055505;28;20095;-76
2022/10/18 12:11:50;;;;;;;14.23;7.70;;;;;;;;;;5073670;28;20378;-75
2022/10/18 12:14:34;;;;;;;16.73;8.68;;;;;;;;;;5072598;28;20074;-79
2022/10/18 12:17:02;;;;;;;18.30;9.90;;;;;;;;;;5073853;28;20040;-77
2022/10/18 12:19:28;;;;;;;22.02;10.95;;;;;;;;;;5074961;28;20028;-79
2022/10/18 12:22:01;;;;;;;20.65;9.25;;;;;;;;;;5047102;28;20087;-79
2022/10/18 12:24:27;;;;;;;18.20;9.70;;;;;;;;;;5073408;28;20494;-79
2022/10/18 12:26:56;;;;;;;18.23;9.30;;;;;;;;;;5046065;28;20019;-82
2022/10/18 12:29:26;;;;;;;18.52;10.38;;;;;;;;;;5037802;28;20020;-80
2022/10/18 12:31:58;;;;;;;16.00;9.93;;;;;;;;;;5070745;28;20040;-78
2022/10/18 12:34:26;;;;;;;16.55;9.73;;;;;;;;;;5073426;28;20024;-78
2022/10/18 12:36:54;;;;;;;21.15;9.57;;;;;;;;;;5072167;28;20040;-80
2022/10/18 12:39:23;;;;;;;15.50;9.15;;;;;;;;;;5071850;28;20035;-80
2022/10/18 12:41:52;;;;;;;18.08;9.50;;;;;;;;;;5087449;28;20421;-79
2022/10/18 12:44:19;;;;;;;18.23;8.63;;;;;;;;;;5070608;28;20124;-78
2022/10/18 12:46:52;;;;;;;17.20;9.65;;;;;;;;;;5026210;28;20021;-81
2022/10/18 12:49:23;;;;;;;20.85;9.85;;;;;;;;;;5015489;28;20139;-82
2022/10/18 12:51:52;;;;;;;17.75;8.68;;;;;;;;;;5019905;28;20086;-72
2022/10/18 12:54:24;;;;;;;18.00;8.90;;;;;;;;;;5049665;28;20554;-75
2022/10/18 12:56:49;;;;;;;14.20;7.65;;;;;;;;;;5027889;28;20024;-78
2022/10/18 12:59:14;;;;;;;16.38;8.15;;;;;;;;;;5022900;28;20101;-76
2022/10/18 13:01:49;;;;;;;14.00;7.70;;;;;;;;;;5022076;28;20020;-76
2022/10/18 13:04:26;;;;;;;15.93;7.10;;;;;;;;;;5045075;28;20461;-76
2022/10/18 13:07:04;;;;;;;22.85;7.57;;;;;;;;;;5010333;28;20796;-76
2022/10/18 13:09:34;;;;;;;14.77;6.95;;;;;;;;;;5020751;28;20039;-78
2022/10/18 13:12:08;;;;;;;19.20;6.93;;;;;;;;;;5018265;28;20048;-78
2022/10/18 13:14:46;;;;;;;12.27;6.50;;;;;;;;;;5018451;28;20491;-76
2022/10/18 13:17:17;;;;;;;14.77;6.68;;;;;;;;;;5016998;28;20056;-78
2022/10/18 13:19:46;;;;;;;16.33;7.00;;;;;;;;;;5018395;28;20043;-78
2022/10/18 13:22:35;;;;;;;8.52;5.38;;;;;;;;;;5035552;28;20032;-78
2022/10/18 13:25:03;;;;;;;14.85;6.95;;;;;;;;;;5029753;28;20036;-76
2022/10/18 13:27:55;;;;;;;13.20;7.07;;;;;;;;;;5036249;28;20016;-73
2022/10/18 13:30:32;;;;;;;11.43;6.13;;;;;;;;;;5031702;28;20028;-76
2022/10/18 13:33:13;;;;;;;15.75;7.47;;;;;;;;;;5043673;28;20123;-75
2022/10/18 13:35:54;;;;;;;32.40;7.72;;;;;;;;;;5033259;28;20695;-76
2022/10/18 13:38:25;;;;;;;22.63;8.70;;;;;;;;;;5031897;28;20035;-76
2022/10/18 13:41:05;;;;;;;19.52;8.27;;;;;;;;;;5012399;28;20029;-76
2022/10/18 13:43:49;;;;;;;15.73;7.57;;;;;;;;;;5013017;28;20004;-76
2022/10/18 13:46:14;;;;;;;13.93;6.78;;;;;;;;;;5011591;28;20897;-78
2022/10/18 13:48:40;;;;;;;8.73;5.10;;;;;;;;;;5013890;28;20013;-74
2022/10/18 13:51:16;;;;;;;14.88;6.57;;;;;;;;;;5033887;28;20147;-77
2022/10/18 13:53:53;;;;;;;11.13;5.75;;;;;;;;;;5029989;28;20038;-79
2022/10/18 13:56:20;;;;;;;8.93;5.25;;;;;;;;;;5015412;28;20025;-79
2022/10/18 13:58:57;;;;;;;19.05;5.70;;;;;;;;;;5011360;28;20055;-79
2022/10/18 14:01:29;;;;;;;12.68;5.57;;;;;;;;;;5030590;28;20140;-77
2022/10/18 14:03:58;;;;;;;12.43;5.30;;;;;;;;;;5019600;28;20024;-77
2022/10/18 14:06:39;;;;;;;12.38;5.07;;;;;;;;;;5014803;28;20033;-72
2022/10/18 14:09:24;;;;;;;17.98;6.03;;;;;;;;;;5012883;28;20026;-72
2022/10/18 14:11:55;;;;;;;14.25;6.68;;;;;;;;;;5012236;28;20020;-72
2022/10/18 14:14:32;;;;;;;16.30;6.72;;;;;;;;;;5030220;28;20020;-77
2022/10/18 14:17:05;;;;;;;13.85;5.45;;;;;;;;;;5014652;28;20044;-78
2022/10/18 14:19:37;;;;;;;9.60;5.90;;;;;;;;;;5044492;28;20024;-76
2022/10/18 14:22:25;;;;;;;15.48;6.43;;;;;;;;;;5050733;28;20807;-75
2022/10/18 14:24:53;;;;;;;11.50;5.78;;;;;;;;;;5025635;28;20043;-78
2022/10/18 14:27:28;;;;;;;13.30;6.05;;;;;;;;;;5025584;28;20025;-74
2022/10/18 14:30:08;;;;;;;22.95;7.28;;;;;;;;;;5040349;28;20024;-72